sensor_id;sensor_type;location;lat;lon;timestamp;P1;durP1;ratioP1;P2;durP2;ratioP2
18425;SDS011;9340;48.756;9.226;2023-08-17T00:02:11;9.52;;;8.82;;
18425;SDS011;9340;48.756;9.226;2023-08-17T00:04:38;8.27;;;7.57;;
18425;SDS011;9340;48.756;9.226;2023-08-17T00:07:05;7.57;;;6.97;;
18425;SDS011;9340;48.756;9.226;2023-08-17T00:09:32;8.93;;;7.82;;
18425;SDS011;9340;48.756;9.226;2023-08-17T00:11:58;9.88;;;7.20;;
18425;SDS011;9340;48.756;9.226;2023-08-17T00:14:26;7.57;;;6.97;;
18425;SDS011;9340;48.756;9.226;2023-08-17T00:16:53;8.38;;;7.68;;
18425;SDS011;9340;48.756;9.226;2023-08-17T00:19:20;8.60;;;7.90;;
18425;SDS011;9340;48.756;9.226;2023-08-17T00:21:48;11.15;;;7.53;;
18425;SDS011;9340;48.756;9.226;2023-08-17T00:24:15;7.97;;;7.28;;
18425;SDS011;9340;48.756;9.226;2023-08-17T00:26:41;8.15;;;7.45;;
18425;SDS011;9340;48.756;9.226;2023-08-17T00:29:08;7.13;;;6.53;;
18425;SDS011;9340;48.756;9.226;2023-08-17T00:31:36;8.40;;;7.70;;
18425;SDS011;9340;48.756;9.226;2023-08-17T00:34:03;8.48;;;7.78;;
18425;SDS011;9340;48.756;9.226;2023-08-17T00:36:29;8.57;;;7.88;;
18425;SDS011;9340;48.756;9.226;2023-08-17T00:38:56;7.82;;;7.22;;
18425;SDS011;9340;48.756;9.226;2023-08-17T00:41:23;7.15;;;6.55;;
18425;SDS011;9340;48.756;9.226;2023-08-17T00:43:49;7.95;;;7.22;;
18425;SDS011;9340;48.756;9.226;2023-08-17T00:46:16;7.53;;;6.82;;
18425;SDS011;9340;48.756;9.226;2023-08-17T00:48:46;9.02;;;8.07;;
18425;SDS011;9340;48.756;9.226;2023-08-17T00:51:13;8.00;;;7.30;;
18425;SDS011;9340;48.756;9.226;2023-08-17T00:53:40;9.27;;;7.43;;
18425;SDS011;9340;48.756;9.226;2023-08-17T00:56:07;8.57;;;7.88;;
18425;SDS011;9340;48.756;9.226;2023-08-17T00:58:34;7.07;;;6.57;;
18425;SDS011;9340;48.756;9.226;2023-08-17T01:01:01;8.57;;;7.78;;
18425;SDS011;9340;48.756;9.226;2023-08-17T01:03:28;8.57;;;6.65;;
18425;SDS011;9340;48.756;9.226;2023-08-17T01:05:57;8.65;;;6.82;;
18425;SDS011;9340;48.756;9.226;2023-08-17T01:08:24;9.98;;;9.07;;
18425;SDS011;9340;48.756;9.226;2023-08-17T01:10:52;7.57;;;7.00;;
18425;SDS011;9340;48.756;9.226;2023-08-17T01:13:25;8.82;;;8.10;;
18425;SDS011;9340;48.756;9.226;2023-08-17T01:16:01;8.30;;;7.60;;
18425;SDS011;9340;48.756;9.226;2023-08-17T01:18:33;8.02;;;7.32;;
18425;SDS011;9340;48.756;9.226;2023-08-17T01:21:05;8.35;;;7.55;;
18425;SDS011;9340;48.756;9.226;2023-08-17T01:23:35;8.45;;;7.65;;
18425;SDS011;9340;48.756;9.226;2023-08-17T01:26:02;8.93;;;8.13;;
18425;SDS011;9340;48.756;9.226;2023-08-17T01:28:28;8.52;;;7.72;;
18425;SDS011;9340;48.756;9.226;2023-08-17T01:30:57;8.48;;;7.78;;
18425;SDS011;9340;48.756;9.226;2023-08-17T01:33:33;8.65;;;7.60;;
18425;SDS011;9340;48.756;9.226;2023-08-17T01:36:05;9.10;;;8.32;;
18425;SDS011;9340;48.756;9.226;2023-08-17T01:38:38;8.73;;;8.07;;
18425;SDS011;9340;48.756;9.226;2023-08-17T01:41:06;9.00;;;8.35;;
18425;SDS011;9340;48.756;9.226;2023-08-17T01:43:38;8.50;;;7.65;;
18425;SDS011;9340;48.756;9.226;2023-08-17T01:46:06;8.80;;;7.97;;
18425;SDS011;9340;48.756;9.226;2023-08-17T01:48:33;9.13;;;8.40;;
18425;SDS011;9340;48.756;9.226;2023-08-17T01:51:00;8.55;;;7.80;;
18425;SDS011;9340;48.756;9.226;2023-08-17T01:53:26;9.10;;;8.50;;
18425;SDS011;9340;48.756;9.226;2023-08-17T01:55:54;8.50;;;7.88;;
18425;SDS011;9340;48.756;9.226;2023-08-17T01:58:21;8.77;;;8.18;;
18425;SDS011;9340;48.756;9.226;2023-08-17T02:00:48;8.98;;;8.27;;
18425;SDS011;9340;48.756;9.226;2023-08-17T02:03:14;8.10;;;7.55;;
18425;SDS011;9340;48.756;9.226;2023-08-17T02:05:43;8.55;;;7.95;;
18425;SDS011;9340;48.756;9.226;2023-08-17T02:08:10;9.15;;;8.48;;
18425;SDS011;9340;48.756;9.226;2023-08-17T02:10:37;8.55;;;7.85;;
18425;SDS011;9340;48.756;9.226;2023-08-17T02:13:06;8.63;;;8.02;;
18425;SDS011;9340;48.756;9.226;2023-08-17T02:15:37;9.27;;;8.50;;
18425;SDS011;9340;48.756;9.226;2023-08-17T02:18:04;11.23;;;10.43;;
18425;SDS011;9340;48.756;9.226;2023-08-17T02:20:31;10.52;;;9.73;;
18425;SDS011;9340;48.756;9.226;2023-08-17T02:22:57;9.68;;;8.75;;
18425;SDS011;9340;48.756;9.226;2023-08-17T02:25:24;9.75;;;8.95;;
18425;SDS011;9340;48.756;9.226;2023-08-17T02:27:51;10.07;;;9.30;;
18425;SDS011;9340;48.756;9.226;2023-08-17T02:30:19;9.43;;;8.63;;
18425;SDS011;9340;48.756;9.226;2023-08-17T02:32:46;10.60;;;9.90;;
18425;SDS011;9340;48.756;9.226;2023-08-17T02:35:12;11.38;;;10.55;;
18425;SDS011;9340;48.756;9.226;2023-08-17T02:37:39;12.02;;;11.10;;
18425;SDS011;9340;48.756;9.226;2023-08-17T02:40:06;10.98;;;10.18;;
18425;SDS011;9340;48.756;9.226;2023-08-17T02:42:33;11.10;;;10.30;;
18425;SDS011;9340;48.756;9.226;2023-08-17T02:45:00;12.88;;;11.82;;
18425;SDS011;9340;48.756;9.226;2023-08-17T02:47:28;12.48;;;11.40;;
18425;SDS011;9340;48.756;9.226;2023-08-17T02:49:54;12.02;;;11.13;;
18425;SDS011;9340;48.756;9.226;2023-08-17T02:52:21;11.20;;;10.27;;
18425;SDS011;9340;48.756;9.226;2023-08-17T02:54:48;11.13;;;10.27;;
18425;SDS011;9340;48.756;9.226;2023-08-17T02:57:15;11.07;;;10.07;;
18425;SDS011;9340;48.756;9.226;2023-08-17T02:59:42;12.15;;;11.25;;
18425;SDS011;9340;48.756;9.226;2023-08-17T03:02:09;13.02;;;11.93;;
18425;SDS011;9340;48.756;9.226;2023-08-17T03:04:37;12.02;;;11.13;;
18425;SDS011;9340;48.756;9.226;2023-08-17T03:07:04;13.48;;;11.45;;
18425;SDS011;9340;48.756;9.226;2023-08-17T03:09:30;10.30;;;9.40;;
18425;SDS011;9340;48.756;9.226;2023-08-17T03:11:57;11.98;;;10.98;;
18425;SDS011;9340;48.756;9.226;2023-08-17T03:14:24;11.40;;;10.30;;
18425;SDS011;9340;48.756;9.226;2023-08-17T03:16:50;13.05;;;12.05;;
18425;SDS011;9340;48.756;9.226;2023-08-17T03:19:17;13.90;;;12.73;;
18425;SDS011;9340;48.756;9.226;2023-08-17T03:21:45;14.90;;;13.60;;
18425;SDS011;9340;48.756;9.226;2023-08-17T03:24:12;16.35;;;14.95;;
18425;SDS011;9340;48.756;9.226;2023-08-17T03:26:39;14.63;;;13.48;;
18425;SDS011;9340;48.756;9.226;2023-08-17T03:29:06;17.90;;;16.40;;
18425;SDS011;9340;48.756;9.226;2023-08-17T03:31:34;18.13;;;16.73;;
18425;SDS011;9340;48.756;9.226;2023-08-17T03:34:01;16.45;;;14.95;;
18425;SDS011;9340;48.756;9.226;2023-08-17T03:36:28;19.73;;;18.08;;
18425;SDS011;9340;48.756;9.226;2023-08-17T03:38:56;16.90;;;15.43;;
18425;SDS011;9340;48.756;9.226;2023-08-17T03:41:23;16.33;;;15.02;;
18425;SDS011;9340;48.756;9.226;2023-08-17T03:43:50;16.65;;;15.15;;
18425;SDS011;9340;48.756;9.226;2023-08-17T03:46:17;16.08;;;14.77;;
18425;SDS011;9340;48.756;9.226;2023-08-17T03:48:43;16.88;;;15.52;;
18425;SDS011;9340;48.756;9.226;2023-08-17T03:51:10;14.52;;;13.32;;
18425;SDS011;9340;48.756;9.226;2023-08-17T03:53:36;17.13;;;13.82;;
18425;SDS011;9340;48.756;9.226;2023-08-17T03:56:05;14.77;;;13.60;;
18425;SDS011;9340;48.756;9.226;2023-08-17T03:58:31;14.68;;;13.55;;
18425;SDS011;9340;48.756;9.226;2023-08-17T04:00:59;17.25;;;15.70;;
18425;SDS011;9340;48.756;9.226;2023-08-17T04:03:26;15.40;;;14.10;;
18425;SDS011;9340;48.756;9.226;2023-08-17T04:05:53;16.23;;;14.75;;
18425;SDS011;9340;48.756;9.226;2023-08-17T04:08:20;15.38;;;13.98;;
18425;SDS011;9340;48.756;9.226;2023-08-17T04:10:46;14.82;;;13.63;;
18425;SDS011;9340;48.756;9.226;2023-08-17T04:13:14;12.57;;;11.57;;
18425;SDS011;9340;48.756;9.226;2023-08-17T04:15:41;13.82;;;12.65;;
18425;SDS011;9340;48.756;9.226;2023-08-17T04:18:08;13.77;;;12.68;;
18425;SDS011;9340;48.756;9.226;2023-08-17T04:20:34;13.52;;;12.38;;
18425;SDS011;9340;48.756;9.226;2023-08-17T04:23:01;12.82;;;11.93;;
18425;SDS011;9340;48.756;9.226;2023-08-17T04:25:28;14.65;;;13.40;;
18425;SDS011;9340;48.756;9.226;2023-08-17T04:27:54;14.25;;;13.05;;
18425;SDS011;9340;48.756;9.226;2023-08-17T04:30:22;14.73;;;13.52;;
18425;SDS011;9340;48.756;9.226;2023-08-17T04:32:49;13.65;;;12.65;;
18425;SDS011;9340;48.756;9.226;2023-08-17T04:35:17;13.75;;;12.45;;
18425;SDS011;9340;48.756;9.226;2023-08-17T04:37:44;15.00;;;13.70;;
18425;SDS011;9340;48.756;9.226;2023-08-17T04:40:12;14.85;;;13.75;;
18425;SDS011;9340;48.756;9.226;2023-08-17T04:42:38;15.25;;;14.05;;
18425;SDS011;9340;48.756;9.226;2023-08-17T04:45:06;15.80;;;14.15;;
18425;SDS011;9340;48.756;9.226;2023-08-17T04:47:34;16.38;;;14.98;;
18425;SDS011;9340;48.756;9.226;2023-08-17T04:50:01;15.95;;;14.65;;
18425;SDS011;9340;48.756;9.226;2023-08-17T04:52:27;15.27;;;13.98;;
18425;SDS011;9340;48.756;9.226;2023-08-17T04:54:54;15.07;;;13.88;;
18425;SDS011;9340;48.756;9.226;2023-08-17T04:57:21;13.95;;;12.90;;
18425;SDS011;9340;48.756;9.226;2023-08-17T04:59:47;14.85;;;13.68;;
18425;SDS011;9340;48.756;9.226;2023-08-17T05:02:14;13.90;;;12.88;;
18425;SDS011;9340;48.756;9.226;2023-08-17T05:04:42;16.42;;;15.23;;
18425;SDS011;9340;48.756;9.226;2023-08-17T05:07:09;17.02;;;15.48;;
18425;SDS011;9340;48.756;9.226;2023-08-17T05:09:35;15.50;;;14.00;;
18425;SDS011;9340;48.756;9.226;2023-08-17T05:12:02;15.25;;;14.15;;
18425;SDS011;9340;48.756;9.226;2023-08-17T05:14:29;17.95;;;16.45;;
18425;SDS011;9340;48.756;9.226;2023-08-17T05:16:56;16.15;;;14.85;;
18425;SDS011;9340;48.756;9.226;2023-08-17T05:19:22;15.02;;;13.90;;
18425;SDS011;9340;48.756;9.226;2023-08-17T05:21:50;16.88;;;15.23;;
18425;SDS011;9340;48.756;9.226;2023-08-17T05:24:18;17.50;;;16.02;;
18425;SDS011;9340;48.756;9.226;2023-08-17T05:26:45;18.98;;;17.38;;
18425;SDS011;9340;48.756;9.226;2023-08-17T05:29:12;16.35;;;15.02;;
18425;SDS011;9340;48.756;9.226;2023-08-17T05:31:39;18.65;;;17.15;;
18425;SDS011;9340;48.756;9.226;2023-08-17T05:34:05;18.95;;;17.30;;
18425;SDS011;9340;48.756;9.226;2023-08-17T05:36:32;18.75;;;17.27;;
18425;SDS011;9340;48.756;9.226;2023-08-17T05:39:00;15.50;;;14.32;;
18425;SDS011;9340;48.756;9.226;2023-08-17T05:41:27;16.10;;;14.90;;
18425;SDS011;9340;48.756;9.226;2023-08-17T05:43:53;17.30;;;15.88;;
18425;SDS011;9340;48.756;9.226;2023-08-17T05:46:21;15.63;;;14.23;;
18425;SDS011;9340;48.756;9.226;2023-08-17T05:48:48;15.23;;;13.80;;
18425;SDS011;9340;48.756;9.226;2023-08-17T05:51:14;13.45;;;12.43;;
18425;SDS011;9340;48.756;9.226;2023-08-17T05:53:41;14.80;;;13.57;;
18425;SDS011;9340;48.756;9.226;2023-08-17T05:56:09;14.27;;;13.00;;
18425;SDS011;9340;48.756;9.226;2023-08-17T05:58:35;12.75;;;11.75;;
18425;SDS011;9340;48.756;9.226;2023-08-17T06:01:05;16.38;;;15.07;;
18425;SDS011;9340;48.756;9.226;2023-08-17T06:03:33;15.90;;;14.60;;
18425;SDS011;9340;48.756;9.226;2023-08-17T06:06:00;14.13;;;12.98;;
18425;SDS011;9340;48.756;9.226;2023-08-17T06:08:27;14.88;;;13.52;;
18425;SDS011;9340;48.756;9.226;2023-08-17T06:10:54;14.07;;;13.00;;
18425;SDS011;9340;48.756;9.226;2023-08-17T06:13:22;13.95;;;12.80;;
18425;SDS011;9340;48.756;9.226;2023-08-17T06:15:49;14.45;;;13.23;;
18425;SDS011;9340;48.756;9.226;2023-08-17T06:18:16;13.23;;;12.13;;
18425;SDS011;9340;48.756;9.226;2023-08-17T06:20:42;12.68;;;11.80;;
18425;SDS011;9340;48.756;9.226;2023-08-17T06:23:11;15.50;;;14.30;;
18425;SDS011;9340;48.756;9.226;2023-08-17T06:25:38;15.48;;;14.27;;
18425;SDS011;9340;48.756;9.226;2023-08-17T06:28:05;13.88;;;12.88;;
18425;SDS011;9340;48.756;9.226;2023-08-17T06:30:33;15.05;;;13.95;;
18425;SDS011;9340;48.756;9.226;2023-08-17T06:33:00;13.45;;;12.45;;
18425;SDS011;9340;48.756;9.226;2023-08-17T06:35:26;13.13;;;12.07;;
18425;SDS011;9340;48.756;9.226;2023-08-17T06:37:53;13.73;;;12.70;;
18425;SDS011;9340;48.756;9.226;2023-08-17T06:40:22;12.13;;;11.18;;
18425;SDS011;9340;48.756;9.226;2023-08-17T06:42:49;13.90;;;12.88;;
18425;SDS011;9340;48.756;9.226;2023-08-17T06:45:17;13.73;;;12.73;;
18425;SDS011;9340;48.756;9.226;2023-08-17T06:47:45;12.32;;;11.38;;
18425;SDS011;9340;48.756;9.226;2023-08-17T06:50:13;12.63;;;11.70;;
18425;SDS011;9340;48.756;9.226;2023-08-17T06:52:40;12.68;;;11.63;;
18425;SDS011;9340;48.756;9.226;2023-08-17T06:55:07;13.52;;;12.52;;
18425;SDS011;9340;48.756;9.226;2023-08-17T06:57:34;12.23;;;11.27;;
18425;SDS011;9340;48.756;9.226;2023-08-17T07:00:01;14.02;;;12.75;;
18425;SDS011;9340;48.756;9.226;2023-08-17T07:02:30;14.48;;;13.38;;
18425;SDS011;9340;48.756;9.226;2023-08-17T07:04:58;14.07;;;12.98;;
18425;SDS011;9340;48.756;9.226;2023-08-17T07:07:24;14.90;;;13.60;;
18425;SDS011;9340;48.756;9.226;2023-08-17T07:09:51;14.00;;;12.90;;
18425;SDS011;9340;48.756;9.226;2023-08-17T07:12:18;13.13;;;12.13;;
18425;SDS011;9340;48.756;9.226;2023-08-17T07:14:44;16.45;;;14.85;;
18425;SDS011;9340;48.756;9.226;2023-08-17T07:17:11;15.32;;;14.23;;
18425;SDS011;9340;48.756;9.226;2023-08-17T07:19:38;16.58;;;15.13;;
18425;SDS011;9340;48.756;9.226;2023-08-17T07:22:06;13.20;;;12.13;;
18425;SDS011;9340;48.756;9.226;2023-08-17T07:24:32;14.23;;;13.02;;
18425;SDS011;9340;48.756;9.226;2023-08-17T07:26:59;13.57;;;12.48;;
18425;SDS011;9340;48.756;9.226;2023-08-17T07:29:26;14.80;;;13.43;;
18425;SDS011;9340;48.756;9.226;2023-08-17T07:31:52;13.40;;;12.43;;
18425;SDS011;9340;48.756;9.226;2023-08-17T07:34:19;15.00;;;13.73;;
18425;SDS011;9340;48.756;9.226;2023-08-17T07:36:46;13.48;;;12.43;;
18425;SDS011;9340;48.756;9.226;2023-08-17T07:39:14;16.08;;;14.60;;
18425;SDS011;9340;48.756;9.226;2023-08-17T07:41:41;15.05;;;13.95;;
18425;SDS011;9340;48.756;9.226;2023-08-17T07:44:07;15.68;;;14.48;;
18425;SDS011;9340;48.756;9.226;2023-08-17T07:46:34;15.43;;;14.32;;
18425;SDS011;9340;48.756;9.226;2023-08-17T07:49:00;15.32;;;14.23;;
18425;SDS011;9340;48.756;9.226;2023-08-17T07:51:27;15.00;;;13.57;;
18425;SDS011;9340;48.756;9.226;2023-08-17T07:53:55;16.20;;;14.98;;
18425;SDS011;9340;48.756;9.226;2023-08-17T07:56:23;18.98;;;17.33;;
18425;SDS011;9340;48.756;9.226;2023-08-17T07:58:49;17.52;;;16.00;;
18425;SDS011;9340;48.756;9.226;2023-08-17T08:01:16;16.83;;;15.48;;
18425;SDS011;9340;48.756;9.226;2023-08-17T08:03:43;17.23;;;15.73;;
18425;SDS011;9340;48.756;9.226;2023-08-17T08:06:09;16.20;;;15.00;;
18425;SDS011;9340;48.756;9.226;2023-08-17T08:08:37;16.45;;;15.10;;
18425;SDS011;9340;48.756;9.226;2023-08-17T08:11:03;14.25;;;13.05;;
18425;SDS011;9340;48.756;9.226;2023-08-17T08:13:31;16.38;;;15.00;;
18425;SDS011;9340;48.756;9.226;2023-08-17T08:15:58;17.77;;;16.48;;
18425;SDS011;9340;48.756;9.226;2023-08-17T08:18:25;16.33;;;14.98;;
18425;SDS011;9340;48.756;9.226;2023-08-17T08:20:52;15.57;;;14.27;;
18425;SDS011;9340;48.756;9.226;2023-08-17T08:23:18;14.57;;;13.30;;
18425;SDS011;9340;48.756;9.226;2023-08-17T08:25:45;14.25;;;13.25;;
18425;SDS011;9340;48.756;9.226;2023-08-17T08:28:12;19.40;;;17.98;;
18425;SDS011;9340;48.756;9.226;2023-08-17T08:30:40;17.45;;;15.85;;
18425;SDS011;9340;48.756;9.226;2023-08-17T08:33:06;16.60;;;15.30;;
18425;SDS011;9340;48.756;9.226;2023-08-17T08:35:33;15.00;;;13.85;;
18425;SDS011;9340;48.756;9.226;2023-08-17T08:38:00;14.68;;;13.45;;
18425;SDS011;9340;48.756;9.226;2023-08-17T08:40:27;13.93;;;12.85;;
18425;SDS011;9340;48.756;9.226;2023-08-17T08:42:55;13.77;;;12.65;;
18425;SDS011;9340;48.756;9.226;2023-08-17T08:45:23;12.88;;;11.77;;
18425;SDS011;9340;48.756;9.226;2023-08-17T08:47:52;12.65;;;11.68;;
18425;SDS011;9340;48.756;9.226;2023-08-17T08:50:20;13.07;;;12.02;;
18425;SDS011;9340;48.756;9.226;2023-08-17T08:52:49;14.80;;;13.50;;
18425;SDS011;9340;48.756;9.226;2023-08-17T08:55:23;13.88;;;12.77;;
18425;SDS011;9340;48.756;9.226;2023-08-17T08:57:52;13.00;;;11.85;;
18425;SDS011;9340;48.756;9.226;2023-08-17T09:00:20;13.80;;;12.68;;
18425;SDS011;9340;48.756;9.226;2023-08-17T09:02:48;14.20;;;13.00;;
18425;SDS011;9340;48.756;9.226;2023-08-17T09:05:16;13.23;;;12.13;;
18425;SDS011;9340;48.756;9.226;2023-08-17T09:07:43;15.15;;;13.77;;
18425;SDS011;9340;48.756;9.226;2023-08-17T09:10:10;15.45;;;14.00;;
18425;SDS011;9340;48.756;9.226;2023-08-17T09:12:38;15.80;;;14.52;;
18425;SDS011;9340;48.756;9.226;2023-08-17T09:15:06;14.07;;;12.98;;
18425;SDS011;9340;48.756;9.226;2023-08-17T09:17:33;14.82;;;13.52;;
18425;SDS011;9340;48.756;9.226;2023-08-17T09:20:00;14.02;;;12.93;;
18425;SDS011;9340;48.756;9.226;2023-08-17T09:22:37;14.65;;;13.48;;
18425;SDS011;9340;48.756;9.226;2023-08-17T09:25:05;16.52;;;15.27;;
18425;SDS011;9340;48.756;9.226;2023-08-17T09:27:32;14.65;;;13.55;;
18425;SDS011;9340;48.756;9.226;2023-08-17T09:30:02;14.93;;;13.63;;
18425;SDS011;9340;48.756;9.226;2023-08-17T09:32:30;13.82;;;12.65;;
18425;SDS011;9340;48.756;9.226;2023-08-17T09:34:57;15.43;;;14.23;;
18425;SDS011;9340;48.756;9.226;2023-08-17T09:37:26;15.45;;;14.15;;
18425;SDS011;9340;48.756;9.226;2023-08-17T09:39:54;15.57;;;14.32;;
18425;SDS011;9340;48.756;9.226;2023-08-17T09:42:21;14.43;;;13.15;;
18425;SDS011;9340;48.756;9.226;2023-08-17T09:44:50;13.63;;;12.48;;
18425;SDS011;9340;48.756;9.226;2023-08-17T09:47:17;14.02;;;12.80;;
18425;SDS011;9340;48.756;9.226;2023-08-17T09:49:47;14.00;;;12.80;;
18425;SDS011;9340;48.756;9.226;2023-08-17T09:52:14;16.30;;;15.02;;
18425;SDS011;9340;48.756;9.226;2023-08-17T09:54:41;12.23;;;11.23;;
18425;SDS011;9340;48.756;9.226;2023-08-17T09:57:09;12.82;;;11.82;;
18425;SDS011;9340;48.756;9.226;2023-08-17T09:59:36;14.88;;;13.60;;
18425;SDS011;9340;48.756;9.226;2023-08-17T10:02:03;11.55;;;10.57;;
18425;SDS011;9340;48.756;9.226;2023-08-17T10:04:33;11.07;;;10.13;;
18425;SDS011;9340;48.756;9.226;2023-08-17T10:07:03;13.82;;;12.48;;
18425;SDS011;9340;48.756;9.226;2023-08-17T10:09:32;11.10;;;10.20;;
18425;SDS011;9340;48.756;9.226;2023-08-17T10:12:05;11.05;;;10.13;;
18425;SDS011;9340;48.756;9.226;2023-08-17T10:14:39;10.40;;;9.60;;
18425;SDS011;9340;48.756;9.226;2023-08-17T10:17:11;9.75;;;9.02;;
18425;SDS011;9340;48.756;9.226;2023-08-17T10:19:46;10.98;;;9.98;;
18425;SDS011;9340;48.756;9.226;2023-08-17T10:22:18;10.52;;;9.68;;
18425;SDS011;9340;48.756;9.226;2023-08-17T10:24:49;10.43;;;9.43;;
18425;SDS011;9340;48.756;9.226;2023-08-17T10:27:17;10.38;;;9.57;;
18425;SDS011;9340;48.756;9.226;2023-08-17T10:29:48;9.88;;;8.80;;
18425;SDS011;9340;48.756;9.226;2023-08-17T10:32:17;10.30;;;9.40;;
18425;SDS011;9340;48.756;9.226;2023-08-17T10:34:44;9.93;;;9.23;;
18425;SDS011;9340;48.756;9.226;2023-08-17T10:37:11;9.00;;;8.30;;
18425;SDS011;9340;48.756;9.226;2023-08-17T10:39:44;9.32;;;8.70;;
18425;SDS011;9340;48.756;9.226;2023-08-17T10:42:11;10.27;;;9.40;;
18425;SDS011;9340;48.756;9.226;2023-08-17T10:44:39;9.98;;;8.43;;
18425;SDS011;9340;48.756;9.226;2023-08-17T10:47:20;8.85;;;8.05;;
18425;SDS011;9340;48.756;9.226;2023-08-17T10:49:47;9.07;;;8.40;;
18425;SDS011;9340;48.756;9.226;2023-08-17T10:52:15;8.57;;;7.88;;
18425;SDS011;9340;48.756;9.226;2023-08-17T10:54:50;9.65;;;8.75;;
18425;SDS011;9340;48.756;9.226;2023-08-17T10:57:32;8.50;;;7.85;;
18425;SDS011;9340;48.756;9.226;2023-08-17T11:00:07;8.73;;;8.13;;
18425;SDS011;9340;48.756;9.226;2023-08-17T11:02:44;7.82;;;7.25;;
18425;SDS011;9340;48.756;9.226;2023-08-17T11:05:12;8.52;;;7.72;;
18425;SDS011;9340;48.756;9.226;2023-08-17T11:07:39;8.35;;;7.75;;
18425;SDS011;9340;48.756;9.226;2023-08-17T11:10:10;7.97;;;7.28;;
18425;SDS011;9340;48.756;9.226;2023-08-17T11:12:40;7.47;;;6.78;;
18425;SDS011;9340;48.756;9.226;2023-08-17T11:15:07;7.40;;;6.90;;
18425;SDS011;9340;48.756;9.226;2023-08-17T11:17:34;7.60;;;7.00;;
18425;SDS011;9340;48.756;9.226;2023-08-17T11:20:03;8.35;;;7.75;;
18425;SDS011;9340;48.756;9.226;2023-08-17T11:22:30;9.07;;;8.18;;
18425;SDS011;9340;48.756;9.226;2023-08-17T11:24:57;8.88;;;8.18;;
18425;SDS011;9340;48.756;9.226;2023-08-17T11:27:24;9.15;;;8.30;;
18425;SDS011;9340;48.756;9.226;2023-08-17T11:29:51;7.50;;;7.00;;
18425;SDS011;9340;48.756;9.226;2023-08-17T11:32:19;9.63;;;8.93;;
18425;SDS011;9340;48.756;9.226;2023-08-17T11:34:45;10.45;;;9.50;;
18425;SDS011;9340;48.756;9.226;2023-08-17T11:37:13;9.57;;;8.57;;
18425;SDS011;9340;48.756;9.226;2023-08-17T11:39:42;8.13;;;7.53;;
18425;SDS011;9340;48.756;9.226;2023-08-17T11:42:08;8.30;;;7.72;;
18425;SDS011;9340;48.756;9.226;2023-08-17T11:44:35;9.43;;;8.73;;
18425;SDS011;9340;48.756;9.226;2023-08-17T11:47:02;9.10;;;8.23;;
18425;SDS011;9340;48.756;9.226;2023-08-17T11:49:30;12.15;;;11.05;;
18425;SDS011;9340;48.756;9.226;2023-08-17T11:51:56;10.90;;;9.93;;
18425;SDS011;9340;48.756;9.226;2023-08-17T11:54:24;8.70;;;8.10;;
18425;SDS011;9340;48.756;9.226;2023-08-17T11:56:51;11.10;;;10.00;;
18425;SDS011;9340;48.756;9.226;2023-08-17T11:59:18;12.25;;;11.35;;
18425;SDS011;9340;48.756;9.226;2023-08-17T12:01:45;11.07;;;10.20;;
18425;SDS011;9340;48.756;9.226;2023-08-17T12:04:14;11.40;;;10.60;;
18425;SDS011;9340;48.756;9.226;2023-08-17T12:06:42;10.55;;;9.52;;
18425;SDS011;9340;48.756;9.226;2023-08-17T12:09:10;10.95;;;9.95;;
18425;SDS011;9340;48.756;9.226;2023-08-17T12:11:40;10.43;;;9.52;;
18425;SDS011;9340;48.756;9.226;2023-08-17T12:14:10;11.00;;;10.00;;
18425;SDS011;9340;48.756;9.226;2023-08-17T12:16:44;9.75;;;8.95;;
18425;SDS011;9340;48.756;9.226;2023-08-17T12:19:13;9.75;;;9.02;;
18425;SDS011;9340;48.756;9.226;2023-08-17T12:21:40;10.63;;;9.80;;
18425;SDS011;9340;48.756;9.226;2023-08-17T12:24:08;10.32;;;9.60;;
18425;SDS011;9340;48.756;9.226;2023-08-17T12:26:35;9.73;;;9.02;;
18425;SDS011;9340;48.756;9.226;2023-08-17T12:29:05;9.73;;;8.93;;
18425;SDS011;9340;48.756;9.226;2023-08-17T12:31:32;9.30;;;8.57;;
18425;SDS011;9340;48.756;9.226;2023-08-17T12:34:00;9.73;;;8.93;;
18425;SDS011;9340;48.756;9.226;2023-08-17T12:36:28;9.15;;;8.45;;
18425;SDS011;9340;48.756;9.226;2023-08-17T12:38:55;10.18;;;9.38;;
18425;SDS011;9340;48.756;9.226;2023-08-17T12:41:21;8.93;;;8.32;;
18425;SDS011;9340;48.756;9.226;2023-08-17T12:43:48;8.80;;;8.00;;
18425;SDS011;9340;48.756;9.226;2023-08-17T12:46:16;10.57;;;9.77;;
18425;SDS011;9340;48.756;9.226;2023-08-17T12:48:43;9.63;;;8.93;;
18425;SDS011;9340;48.756;9.226;2023-08-17T12:51:09;10.35;;;9.55;;
18425;SDS011;9340;48.756;9.226;2023-08-17T12:53:36;11.75;;;10.75;;
18425;SDS011;9340;48.756;9.226;2023-08-17T12:56:03;11.52;;;10.60;;
18425;SDS011;9340;48.756;9.226;2023-08-17T12:58:30;10.27;;;9.57;;
18425;SDS011;9340;48.756;9.226;2023-08-17T13:00:56;10.38;;;9.57;;
18425;SDS011;9340;48.756;9.226;2023-08-17T13:03:24;9.75;;;8.98;;
18425;SDS011;9340;48.756;9.226;2023-08-17T13:05:51;9.43;;;8.73;;
18425;SDS011;9340;48.756;9.226;2023-08-17T13:08:18;10.73;;;9.73;;
18425;SDS011;9340;48.756;9.226;2023-08-17T13:10:44;10.30;;;9.48;;
18425;SDS011;9340;48.756;9.226;2023-08-17T13:13:11;9.30;;;8.48;;
18425;SDS011;9340;48.756;9.226;2023-08-17T13:15:38;8.20;;;7.60;;
18425;SDS011;9340;48.756;9.226;2023-08-17T13:18:06;8.65;;;8.00;;
18425;SDS011;9340;48.756;9.226;2023-08-17T13:20:34;8.63;;;7.95;;
18425;SDS011;9340;48.756;9.226;2023-08-17T13:23:02;7.95;;;7.25;;
18425;SDS011;9340;48.756;9.226;2023-08-17T13:25:29;8.85;;;8.13;;
18425;SDS011;9340;48.756;9.226;2023-08-17T13:27:55;8.30;;;7.70;;
18425;SDS011;9340;48.756;9.226;2023-08-17T13:30:22;9.27;;;8.48;;
18425;SDS011;9340;48.756;9.226;2023-08-17T13:32:49;8.70;;;7.82;;
18425;SDS011;9340;48.756;9.226;2023-08-17T13:35:16;8.52;;;7.72;;
18425;SDS011;9340;48.756;9.226;2023-08-17T13:37:44;7.20;;;6.70;;
18425;SDS011;9340;48.756;9.226;2023-08-17T13:40:11;7.43;;;6.88;;
18425;SDS011;9340;48.756;9.226;2023-08-17T13:42:38;7.72;;;7.13;;
18425;SDS011;9340;48.756;9.226;2023-08-17T13:45:05;7.53;;;6.85;;
18425;SDS011;9340;48.756;9.226;2023-08-17T13:47:32;7.95;;;6.53;;
18425;SDS011;9340;48.756;9.226;2023-08-17T13:49:59;9.63;;;7.20;;
18425;SDS011;9340;48.756;9.226;2023-08-17T13:52:25;7.65;;;7.10;;
18425;SDS011;9340;48.756;9.226;2023-08-17T13:54:53;7.07;;;6.47;;
18425;SDS011;9340;48.756;9.226;2023-08-17T13:57:20;8.05;;;7.25;;
18425;SDS011;9340;48.756;9.226;2023-08-17T13:59:47;8.23;;;7.43;;
18425;SDS011;9340;48.756;9.226;2023-08-17T14:02:13;9.63;;;7.60;;
18425;SDS011;9340;48.756;9.226;2023-08-17T14:04:40;7.75;;;7.13;;
18425;SDS011;9340;48.756;9.226;2023-08-17T14:07:07;8.05;;;7.40;;
18425;SDS011;9340;48.756;9.226;2023-08-17T14:09:33;7.47;;;6.93;;
18425;SDS011;9340;48.756;9.226;2023-08-17T14:12:01;8.60;;;7.85;;
18425;SDS011;9340;48.756;9.226;2023-08-17T14:14:29;7.35;;;6.85;;
18425;SDS011;9340;48.756;9.226;2023-08-17T14:16:56;7.55;;;6.95;;
18425;SDS011;9340;48.756;9.226;2023-08-17T14:19:23;7.97;;;7.38;;
18425;SDS011;9340;48.756;9.226;2023-08-17T14:21:49;8.45;;;7.85;;
18425;SDS011;9340;48.756;9.226;2023-08-17T14:24:17;9.07;;;7.65;;
18425;SDS011;9340;48.756;9.226;2023-08-17T14:26:44;8.48;;;7.78;;
18425;SDS011;9340;48.756;9.226;2023-08-17T14:29:12;8.95;;;8.18;;
18425;SDS011;9340;48.756;9.226;2023-08-17T14:31:38;8.75;;;7.90;;
18425;SDS011;9340;48.756;9.226;2023-08-17T14:34:05;7.93;;;7.22;;
18425;SDS011;9340;48.756;9.226;2023-08-17T14:36:32;7.65;;;7.07;;
18425;SDS011;9340;48.756;9.226;2023-08-17T14:38:58;7.72;;;7.00;;
18425;SDS011;9340;48.756;9.226;2023-08-17T14:41:25;8.45;;;7.75;;
18425;SDS011;9340;48.756;9.226;2023-08-17T14:43:57;8.73;;;8.02;;
18425;SDS011;9340;48.756;9.226;2023-08-17T14:46:25;8.20;;;7.60;;
18425;SDS011;9340;48.756;9.226;2023-08-17T14:48:52;8.60;;;7.93;;